Position Seapath 380+ Data

ModelKongsberg Seatex Seapath 380 heading, attitude and positioning sensor series
LocationMain Mast
S/NPU112593
CORIOLIX IDgnsspo112593
Native Sample RateNone Hz
 
 

Real-time Data

 
 

Recent Data


This table displays the most recent 10 records of data collected prior to the webpage being loaded. To update the data shown, refresh your browser page. Older data may be accessed using the data download tool below. The corrected time is the time after subtracting sensor-specific temporal offsets such as response time and residence time. A summary of flag descriptions is available on the Quality Flags page.

    Date   Time (UTC)   Corrected Time (UTC)   Flags   cog (degrees_true)      
May 09 2026     16:28:05.308     16:28:05.308     212121222222222222222222222222     157.25    
May 09 2026     16:28:04.308     16:28:04.308     212121222222222222222222222222     131.29    
May 09 2026     16:28:03.308     16:28:03.308     212121222222222222222222222222     172.79    
May 09 2026     16:28:02.308     16:28:02.308     212121222222222222222222222222     129.38    
May 09 2026     16:28:01.308     16:28:01.308     212121222222222222222222222222     155.75    
May 09 2026     16:28:00.308     16:28:00.308     212121222222222222222222222222     149.91    
May 09 2026     16:27:59.308     16:27:59.308     212121222222222222222222222222     172.58    
May 09 2026     16:27:58.308     16:27:58.308     212121222222222222222222222222     120.36    
May 09 2026     16:27:57.308     16:27:57.308     212121222222222222222222222222     217.55    
May 09 2026     16:27:56.308     16:27:56.308     212121222222222222222222222222     135.48    
    Date   Time (UTC)   Corrected Time (UTC)   Flags   geo_point (degrees)      
May 09 2026     16:28:05.213     16:28:05.213     212221222222222222222222222222     SRID=4326;POINT (-122.2890934833333 37.79045806666667)    
May 09 2026     16:28:04.213     16:28:04.213     212221222222222222222222222222     SRID=4326;POINT (-122.2890935 37.79045803333334)    
May 09 2026     16:28:03.213     16:28:03.213     212221222222222222222222222222     SRID=4326;POINT (-122.2890935166667 37.79045796666666)    
May 09 2026     16:28:02.213     16:28:02.213     212221222222222222222222222222     SRID=4326;POINT (-122.2890935666667 37.79045801666667)    
May 09 2026     16:28:01.213     16:28:01.213     212221222222222222222222222222     SRID=4326;POINT (-122.2890936 37.79045805)    
May 09 2026     16:28:00.213     16:28:00.213     212221222222222222222222222222     SRID=4326;POINT (-122.2890936333333 37.79045808333333)    
May 09 2026     16:27:59.213     16:27:59.213     212221222222222222222222222222     SRID=4326;POINT (-122.2890936833333 37.79045811666666)    
May 09 2026     16:27:58.213     16:27:58.213     212221222222222222222222222222     SRID=4326;POINT (-122.2890937166667 37.79045816666667)    
May 09 2026     16:27:57.213     16:27:57.213     212221222222222222222222222222     SRID=4326;POINT (-122.2890937666667 37.79045823333333)    
May 09 2026     16:27:56.213     16:27:56.213     212221222222222222222222222222     SRID=4326;POINT (-122.2890938 37.7904582)    
    Date   Time (UTC)   Corrected Time (UTC)   Flags   gps_quality (unitless)      
May 09 2026     16:28:06.213     16:28:06.213     212121222222222222222222222222     2    
May 09 2026     16:28:05.213     16:28:05.213     212121222222222222222222222222     2    
May 09 2026     16:28:04.213     16:28:04.213     212121222222222222222222222222     2    
May 09 2026     16:28:03.213     16:28:03.213     212121222222222222222222222222     2    
May 09 2026     16:28:02.213     16:28:02.213     212121222222222222222222222222     2    
May 09 2026     16:28:01.213     16:28:01.213     212121222222222222222222222222     2    
May 09 2026     16:28:00.213     16:28:00.213     212121222222222222222222222222     2    
May 09 2026     16:27:59.213     16:27:59.213     212121222222222222222222222222     2    
May 09 2026     16:27:58.213     16:27:58.213     212121222222222222222222222222     2    
May 09 2026     16:27:57.213     16:27:57.213     212121222222222222222222222222     2    
    Date   Time (UTC)   Corrected Time (UTC)   Flags   hdop (unitless)      
May 09 2026     16:28:06.213     16:28:06.213     212121222222222222222222222222     0.90    
May 09 2026     16:28:05.213     16:28:05.213     212121222222222222222222222222     0.90    
May 09 2026     16:28:04.213     16:28:04.213     212121222222222222222222222222     0.90    
May 09 2026     16:28:03.213     16:28:03.213     212121222222222222222222222222     0.90    
May 09 2026     16:28:02.213     16:28:02.213     212121222222222222222222222222     0.90    
May 09 2026     16:28:01.213     16:28:01.213     212121222222222222222222222222     0.90    
May 09 2026     16:28:00.213     16:28:00.213     212121222222222222222222222222     0.90    
May 09 2026     16:27:59.213     16:27:59.213     212121222222222222222222222222     0.90    
May 09 2026     16:27:58.213     16:27:58.213     212121222222222222222222222222     0.90    
May 09 2026     16:27:57.213     16:27:57.213     212121222222222222222222222222     0.90    
    Date   Time (UTC)   Corrected Time (UTC)   Flags   heading (degrees_true)      
May 09 2026     16:28:06.406     16:28:06.406     212121222222222222222222222222     268.88    
May 09 2026     16:28:05.406     16:28:05.406     212121222222222222222222222222     268.88    
May 09 2026     16:28:04.406     16:28:04.406     212121222222222222222222222222     268.88    
May 09 2026     16:28:03.406     16:28:03.406     212121222222222222222222222222     268.88    
May 09 2026     16:28:02.406     16:28:02.406     212121222222222222222222222222     268.88    
May 09 2026     16:28:01.406     16:28:01.406     212121222222222222222222222222     268.88    
May 09 2026     16:28:00.406     16:28:00.406     212121222222222222222222222222     268.88    
May 09 2026     16:27:59.406     16:27:59.406     212121222222222222222222222222     268.88    
May 09 2026     16:27:58.406     16:27:58.406     212121222222222222222222222222     268.88    
May 09 2026     16:27:57.406     16:27:57.406     212121222222222222222222222222     268.88    
    Date   Time (UTC)   Corrected Time (UTC)   Flags   latitude (degrees)      
May 09 2026     16:28:07.213     16:28:07.213     212121222222222222222222222222     37.7905    
May 09 2026     16:28:06.213     16:28:06.213     212121222222222222222222222222     37.7905    
May 09 2026     16:28:05.213     16:28:05.213     212121222222222222222222222222     37.7905    
May 09 2026     16:28:04.213     16:28:04.213     212121222222222222222222222222     37.7905    
May 09 2026     16:28:03.213     16:28:03.213     212121222222222222222222222222     37.7905    
May 09 2026     16:28:02.213     16:28:02.213     212121222222222222222222222222     37.7905    
May 09 2026     16:28:01.213     16:28:01.213     212121222222222222222222222222     37.7905    
May 09 2026     16:28:00.213     16:28:00.213     212121222222222222222222222222     37.7905    
May 09 2026     16:27:59.213     16:27:59.213     212121222222222222222222222222     37.7905    
May 09 2026     16:27:58.213     16:27:58.213     212121222222222222222222222222     37.7905    
    Date   Time (UTC)   Corrected Time (UTC)   Flags   longitude (degrees)      
May 09 2026     16:28:07.213     16:28:07.213     212121222222222222222222222222     -122.2891    
May 09 2026     16:28:06.213     16:28:06.213     212121222222222222222222222222     -122.2891    
May 09 2026     16:28:05.213     16:28:05.213     212121222222222222222222222222     -122.2891    
May 09 2026     16:28:04.213     16:28:04.213     212121222222222222222222222222     -122.2891    
May 09 2026     16:28:03.213     16:28:03.213     212121222222222222222222222222     -122.2891    
May 09 2026     16:28:02.213     16:28:02.213     212121222222222222222222222222     -122.2891    
May 09 2026     16:28:01.213     16:28:01.213     212121222222222222222222222222     -122.2891    
May 09 2026     16:28:00.213     16:28:00.213     212121222222222222222222222222     -122.2891    
May 09 2026     16:27:59.213     16:27:59.213     212121222222222222222222222222     -122.2891    
May 09 2026     16:27:58.213     16:27:58.213     212121222222222222222222222222     -122.2891    
    Date   Time (UTC)   Corrected Time (UTC)   Flags   sog (km/hr)      
May 09 2026     16:28:07.308     16:28:07.308     212121222222222222222222222222     0.00    
May 09 2026     16:28:06.308     16:28:06.308     212121222222222222222222222222     0.00    
May 09 2026     16:28:05.308     16:28:05.308     212121222222222222222222222222     0.00    
May 09 2026     16:28:04.308     16:28:04.308     212121222222222222222222222222     0.00    
May 09 2026     16:28:03.308     16:28:03.308     212121222222222222222222222222     0.00    
May 09 2026     16:28:02.308     16:28:02.308     212121222222222222222222222222     0.00    
May 09 2026     16:28:01.308     16:28:01.308     212121222222222222222222222222     0.00    
May 09 2026     16:28:00.308     16:28:00.308     212121222222222222222222222222     0.00    
May 09 2026     16:27:59.308     16:27:59.308     212121222222222222222222222222     0.00    
May 09 2026     16:27:58.308     16:27:58.308     212121222222222222222222222222     0.00    
    Date   Time (UTC)   Corrected Time (UTC)   Flags   visible_satellites (unitless)      
May 09 2026     16:28:07.213     16:28:07.213     212121222222222222222222222222     9    
May 09 2026     16:28:06.213     16:28:06.213     212121222222222222222222222222     9    
May 09 2026     16:28:05.213     16:28:05.213     212121222222222222222222222222     9    
May 09 2026     16:28:04.213     16:28:04.213     212121222222222222222222222222     9    
May 09 2026     16:28:03.213     16:28:03.213     212121222222222222222222222222     9    
May 09 2026     16:28:02.213     16:28:02.213     212121222222222222222222222222     9    
May 09 2026     16:28:01.213     16:28:01.213     212121222222222222222222222222     9    
May 09 2026     16:28:00.213     16:28:00.213     212121222222222222222222222222     9    
May 09 2026     16:27:59.213     16:27:59.213     212121222222222222222222222222     9    
May 09 2026     16:27:58.213     16:27:58.213     212121222222222222222222222222     9    
 

Data Download


More download options are available from the Full Resolution Download, Binned Data Download, and Binned Data With Statistics Download pages.

 
 
One-Click


Cruise:
Start Date:
End Date:
Chief Scientist:

Download the entire CORIOLIX full resolution dataset for the latest cruise.
Customized


Customize your dataset using the options below.

Temporal Resolution
Date Range
Start Date  UTC
End Date  UTC
yyyy-mm-ddThh:mm:ss
Select Cruise
Data Format 
 Show Data Access URLs
 

Data URLs

Metadata URLs

 






 
 
 
 
 
OSU logo NSF logo RCRV logo
RCRV Datapresence and Engineering Support Center
Oregon State University
Corvallis, OR 97331, USA
coriolix_support@oregonstate.edu